sensor_id;sensor_type;location;lat;lon;timestamp;P1;durP1;ratioP1;P2;durP2;ratioP2
29824;SDS011;16713;52.916;12.834;2022-10-16T00:00:46;5.22;;;3.38;;
29824;SDS011;16713;52.916;12.834;2022-10-16T00:03:13;2.83;;;2.58;;
29824;SDS011;16713;52.916;12.834;2022-10-16T00:05:43;4.47;;;3.35;;
29824;SDS011;16713;52.916;12.834;2022-10-16T00:08:10;4.10;;;3.35;;
29824;SDS011;16713;52.916;12.834;2022-10-16T00:10:37;8.82;;;3.28;;
29824;SDS011;16713;52.916;12.834;2022-10-16T00:13:04;4.00;;;2.42;;
29824;SDS011;16713;52.916;12.834;2022-10-16T00:15:34;3.55;;;3.10;;
29824;SDS011;16713;52.916;12.834;2022-10-16T00:18:03;3.50;;;2.55;;
29824;SDS011;16713;52.916;12.834;2022-10-16T00:20:30;7.63;;;4.75;;
29824;SDS011;16713;52.916;12.834;2022-10-16T00:23:00;3.30;;;2.97;;
29824;SDS011;16713;52.916;12.834;2022-10-16T00:25:26;2.72;;;2.28;;
29824;SDS011;16713;52.916;12.834;2022-10-16T00:27:53;4.28;;;2.83;;
29824;SDS011;16713;52.916;12.834;2022-10-16T00:30:19;3.58;;;2.65;;
29824;SDS011;16713;52.916;12.834;2022-10-16T00:32:45;6.00;;;3.30;;
29824;SDS011;16713;52.916;12.834;2022-10-16T00:35:12;4.00;;;2.50;;
29824;SDS011;16713;52.916;12.834;2022-10-16T00:37:38;3.75;;;2.97;;
29824;SDS011;16713;52.916;12.834;2022-10-16T00:40:05;3.25;;;2.83;;
29824;SDS011;16713;52.916;12.834;2022-10-16T00:42:31;4.63;;;3.67;;
29824;SDS011;16713;52.916;12.834;2022-10-16T00:44:58;7.40;;;5.30;;
29824;SDS011;16713;52.916;12.834;2022-10-16T00:47:26;5.78;;;4.55;;
29824;SDS011;16713;52.916;12.834;2022-10-16T00:50:03;4.05;;;2.55;;
29824;SDS011;16713;52.916;12.834;2022-10-16T00:52:34;4.15;;;2.42;;
29824;SDS011;16713;52.916;12.834;2022-10-16T00:55:02;2.30;;;2.10;;
29824;SDS011;16713;52.916;12.834;2022-10-16T00:57:30;2.42;;;2.22;;
29824;SDS011;16713;52.916;12.834;2022-10-16T00:59:57;2.60;;;2.30;;
29824;SDS011;16713;52.916;12.834;2022-10-16T01:02:24;3.80;;;2.35;;
29824;SDS011;16713;52.916;12.834;2022-10-16T01:04:52;5.65;;;2.40;;
29824;SDS011;16713;52.916;12.834;2022-10-16T01:10:03;3.05;;;2.00;;
29824;SDS011;16713;52.916;12.834;2022-10-16T01:12:41;2.55;;;2.22;;
29824;SDS011;16713;52.916;12.834;2022-10-16T01:15:22;2.63;;;2.40;;
29824;SDS011;16713;52.916;12.834;2022-10-16T01:20:31;2.65;;;2.42;;
29824;SDS011;16713;52.916;12.834;2022-10-16T01:23:27;2.78;;;1.80;;
29824;SDS011;16713;52.916;12.834;2022-10-16T01:28:35;2.47;;;2.00;;
29824;SDS011;16713;52.916;12.834;2022-10-16T01:31:24;2.45;;;2.05;;
29824;SDS011;16713;52.916;12.834;2022-10-16T01:36:53;2.20;;;2.00;;
29824;SDS011;16713;52.916;12.834;2022-10-16T01:39:24;2.13;;;1.75;;
29824;SDS011;16713;52.916;12.834;2022-10-16T01:41:56;5.60;;;2.55;;
29824;SDS011;16713;52.916;12.834;2022-10-16T01:44:31;2.42;;;2.10;;
29824;SDS011;16713;52.916;12.834;2022-10-16T01:46:59;2.53;;;2.15;;
29824;SDS011;16713;52.916;12.834;2022-10-16T01:49:27;2.20;;;1.95;;
29824;SDS011;16713;52.916;12.834;2022-10-16T01:51:58;2.85;;;1.90;;
29824;SDS011;16713;52.916;12.834;2022-10-16T01:54:28;2.38;;;2.10;;
29824;SDS011;16713;52.916;12.834;2022-10-16T01:56:58;3.83;;;2.22;;
29824;SDS011;16713;52.916;12.834;2022-10-16T01:59:26;2.78;;;2.58;;
29824;SDS011;16713;52.916;12.834;2022-10-16T02:02:01;4.03;;;2.15;;
29824;SDS011;16713;52.916;12.834;2022-10-16T02:04:39;2.80;;;1.98;;
29824;SDS011;16713;52.916;12.834;2022-10-16T02:07:10;2.35;;;1.98;;
29824;SDS011;16713;52.916;12.834;2022-10-16T02:09:37;2.78;;;1.92;;
29824;SDS011;16713;52.916;12.834;2022-10-16T02:12:06;2.38;;;2.10;;
29824;SDS011;16713;52.916;12.834;2022-10-16T02:14:38;7.30;;;2.35;;
29824;SDS011;16713;52.916;12.834;2022-10-16T02:17:15;2.97;;;2.03;;
29824;SDS011;16713;52.916;12.834;2022-10-16T02:19:43;16.30;;;2.28;;
29824;SDS011;16713;52.916;12.834;2022-10-16T02:22:24;3.40;;;1.90;;
29824;SDS011;16713;52.916;12.834;2022-10-16T02:24:57;3.50;;;2.20;;
29824;SDS011;16713;52.916;12.834;2022-10-16T02:27:31;2.25;;;1.83;;
29824;SDS011;16713;52.916;12.834;2022-10-16T02:32:51;1.77;;;1.55;;
29824;SDS011;16713;52.916;12.834;2022-10-16T02:35:20;2.22;;;1.45;;
29824;SDS011;16713;52.916;12.834;2022-10-16T02:37:49;2.00;;;1.88;;
29824;SDS011;16713;52.916;12.834;2022-10-16T02:40:17;1.50;;;1.40;;
29824;SDS011;16713;52.916;12.834;2022-10-16T02:42:51;3.30;;;1.70;;
29824;SDS011;16713;52.916;12.834;2022-10-16T02:45:18;3.53;;;1.38;;
29824;SDS011;16713;52.916;12.834;2022-10-16T02:47:45;2.05;;;1.95;;
29824;SDS011;16713;52.916;12.834;2022-10-16T02:50:11;3.55;;;1.88;;
29824;SDS011;16713;52.916;12.834;2022-10-16T02:52:38;3.58;;;1.83;;
29824;SDS011;16713;52.916;12.834;2022-10-16T02:55:04;2.33;;;1.55;;
29824;SDS011;16713;52.916;12.834;2022-10-16T02:57:31;2.67;;;1.60;;
29824;SDS011;16713;52.916;12.834;2022-10-16T02:59:58;4.30;;;1.83;;
29824;SDS011;16713;52.916;12.834;2022-10-16T03:02:24;1.67;;;1.27;;
29824;SDS011;16713;52.916;12.834;2022-10-16T03:04:51;4.18;;;1.30;;
29824;SDS011;16713;52.916;12.834;2022-10-16T03:07:17;4.38;;;1.50;;
29824;SDS011;16713;52.916;12.834;2022-10-16T03:09:43;3.85;;;1.52;;
29824;SDS011;16713;52.916;12.834;2022-10-16T03:12:10;1.27;;;1.17;;
29824;SDS011;16713;52.916;12.834;2022-10-16T03:14:38;1.58;;;1.20;;
29824;SDS011;16713;52.916;12.834;2022-10-16T03:17:05;1.60;;;1.15;;
29824;SDS011;16713;52.916;12.834;2022-10-16T03:19:32;1.30;;;1.20;;
29824;SDS011;16713;52.916;12.834;2022-10-16T03:21:58;2.28;;;1.17;;
29824;SDS011;16713;52.916;12.834;2022-10-16T03:24:25;1.80;;;1.20;;
29824;SDS011;16713;52.916;12.834;2022-10-16T03:26:51;3.20;;;1.25;;
29824;SDS011;16713;52.916;12.834;2022-10-16T03:29:17;1.83;;;1.20;;
29824;SDS011;16713;52.916;12.834;2022-10-16T03:31:44;2.58;;;1.10;;
29824;SDS011;16713;52.916;12.834;2022-10-16T03:34:10;1.48;;;1.38;;
29824;SDS011;16713;52.916;12.834;2022-10-16T03:36:36;2.58;;;1.35;;
29824;SDS011;16713;52.916;12.834;2022-10-16T03:39:03;1.48;;;1.38;;
29824;SDS011;16713;52.916;12.834;2022-10-16T03:41:29;1.80;;;1.13;;
29824;SDS011;16713;52.916;12.834;2022-10-16T03:43:55;2.08;;;1.70;;
29824;SDS011;16713;52.916;12.834;2022-10-16T03:46:22;2.28;;;1.50;;
29824;SDS011;16713;52.916;12.834;2022-10-16T03:48:48;3.45;;;1.63;;
29824;SDS011;16713;52.916;12.834;2022-10-16T03:51:15;4.30;;;1.40;;
29824;SDS011;16713;52.916;12.834;2022-10-16T03:53:41;3.90;;;1.60;;
29824;SDS011;16713;52.916;12.834;2022-10-16T03:56:07;6.22;;;1.85;;
29824;SDS011;16713;52.916;12.834;2022-10-16T03:58:34;4.28;;;1.58;;
29824;SDS011;16713;52.916;12.834;2022-10-16T04:01:00;1.60;;;1.40;;
29824;SDS011;16713;52.916;12.834;2022-10-16T04:03:27;3.15;;;1.60;;
29824;SDS011;16713;52.916;12.834;2022-10-16T04:08:20;1.65;;;1.52;;
29824;SDS011;16713;52.916;12.834;2022-10-16T04:10:47;2.88;;;1.52;;
29824;SDS011;16713;52.916;12.834;2022-10-16T04:13:13;1.70;;;1.50;;
29824;SDS011;16713;52.916;12.834;2022-10-16T04:15:40;1.77;;;1.67;;
29824;SDS011;16713;52.916;12.834;2022-10-16T04:18:06;1.58;;;1.48;;
29824;SDS011;16713;52.916;12.834;2022-10-16T04:20:33;3.85;;;1.40;;
29824;SDS011;16713;52.916;12.834;2022-10-16T04:23:00;2.00;;;1.83;;
29824;SDS011;16713;52.916;12.834;2022-10-16T04:25:26;1.75;;;1.65;;
29824;SDS011;16713;52.916;12.834;2022-10-16T04:27:53;3.08;;;1.77;;
29824;SDS011;16713;52.916;12.834;2022-10-16T04:30:20;2.47;;;1.80;;
29824;SDS011;16713;52.916;12.834;2022-10-16T04:32:50;3.35;;;1.60;;
29824;SDS011;16713;52.916;12.834;2022-10-16T04:35:18;3.15;;;1.63;;
29824;SDS011;16713;52.916;12.834;2022-10-16T04:37:46;5.18;;;1.80;;
29824;SDS011;16713;52.916;12.834;2022-10-16T04:40:13;2.50;;;1.92;;
29824;SDS011;16713;52.916;12.834;2022-10-16T04:42:39;3.35;;;1.58;;
29824;SDS011;16713;52.916;12.834;2022-10-16T04:45:06;3.58;;;1.55;;
29824;SDS011;16713;52.916;12.834;2022-10-16T04:47:39;2.75;;;1.60;;
29824;SDS011;16713;52.916;12.834;2022-10-16T04:50:06;5.63;;;2.20;;
29824;SDS011;16713;52.916;12.834;2022-10-16T04:52:33;2.15;;;1.52;;
29824;SDS011;16713;52.916;12.834;2022-10-16T04:55:05;2.17;;;1.98;;
29824;SDS011;16713;52.916;12.834;2022-10-16T04:57:31;4.20;;;1.48;;
29824;SDS011;16713;52.916;12.834;2022-10-16T04:59:59;2.92;;;1.38;;
29824;SDS011;16713;52.916;12.834;2022-10-16T05:02:25;3.15;;;1.30;;
29824;SDS011;16713;52.916;12.834;2022-10-16T05:04:52;1.40;;;1.08;;
29824;SDS011;16713;52.916;12.834;2022-10-16T05:07:18;2.47;;;1.50;;
29824;SDS011;16713;52.916;12.834;2022-10-16T05:09:44;2.92;;;1.50;;
29824;SDS011;16713;52.916;12.834;2022-10-16T05:12:11;3.28;;;1.42;;
29824;SDS011;16713;52.916;12.834;2022-10-16T05:14:37;3.03;;;1.48;;
29824;SDS011;16713;52.916;12.834;2022-10-16T05:17:04;2.80;;;1.27;;
29824;SDS011;16713;52.916;12.834;2022-10-16T05:19:30;3.15;;;1.40;;
29824;SDS011;16713;52.916;12.834;2022-10-16T05:21:56;2.03;;;1.00;;
29824;SDS011;16713;52.916;12.834;2022-10-16T05:24:23;3.45;;;1.60;;
29824;SDS011;16713;52.916;12.834;2022-10-16T05:26:49;1.63;;;1.52;;
29824;SDS011;16713;52.916;12.834;2022-10-16T05:29:16;2.70;;;1.42;;
29824;SDS011;16713;52.916;12.834;2022-10-16T05:31:43;3.17;;;1.80;;
29824;SDS011;16713;52.916;12.834;2022-10-16T05:34:09;5.03;;;2.15;;
29824;SDS011;16713;52.916;12.834;2022-10-16T05:36:36;1.60;;;1.50;;
29824;SDS011;16713;52.916;12.834;2022-10-16T05:39:02;15.45;;;2.70;;
29824;SDS011;16713;52.916;12.834;2022-10-16T05:41:28;2.35;;;1.60;;
29824;SDS011;16713;52.916;12.834;2022-10-16T05:43:55;3.50;;;1.75;;
29824;SDS011;16713;52.916;12.834;2022-10-16T05:46:21;3.80;;;2.00;;
29824;SDS011;16713;52.916;12.834;2022-10-16T05:48:48;4.18;;;1.90;;
29824;SDS011;16713;52.916;12.834;2022-10-16T05:51:14;3.03;;;2.20;;
29824;SDS011;16713;52.916;12.834;2022-10-16T05:53:41;3.88;;;2.47;;
29824;SDS011;16713;52.916;12.834;2022-10-16T05:56:13;2.10;;;1.90;;
29824;SDS011;16713;52.916;12.834;2022-10-16T05:58:39;6.53;;;2.40;;
29824;SDS011;16713;52.916;12.834;2022-10-16T06:01:11;2.58;;;2.38;;
29824;SDS011;16713;52.916;12.834;2022-10-16T06:03:39;5.20;;;2.22;;
29824;SDS011;16713;52.916;12.834;2022-10-16T06:06:10;2.60;;;2.33;;
29824;SDS011;16713;52.916;12.834;2022-10-16T06:08:38;3.30;;;2.15;;
29824;SDS011;16713;52.916;12.834;2022-10-16T06:11:07;2.85;;;1.95;;
29824;SDS011;16713;52.916;12.834;2022-10-16T06:13:36;6.47;;;2.65;;
29824;SDS011;16713;52.916;12.834;2022-10-16T06:16:03;2.47;;;1.80;;
29824;SDS011;16713;52.916;12.834;2022-10-16T06:18:30;3.83;;;2.63;;
29824;SDS011;16713;52.916;12.834;2022-10-16T06:20:57;3.85;;;2.28;;
29824;SDS011;16713;52.916;12.834;2022-10-16T06:23:25;3.30;;;2.17;;
29824;SDS011;16713;52.916;12.834;2022-10-16T06:25:51;2.30;;;2.10;;
29824;SDS011;16713;52.916;12.834;2022-10-16T06:28:18;4.03;;;2.33;;
29824;SDS011;16713;52.916;12.834;2022-10-16T06:30:44;4.32;;;3.03;;
29824;SDS011;16713;52.916;12.834;2022-10-16T06:33:11;4.57;;;2.80;;
29824;SDS011;16713;52.916;12.834;2022-10-16T06:35:38;5.43;;;3.45;;
29824;SDS011;16713;52.916;12.834;2022-10-16T06:38:04;3.10;;;2.80;;
29824;SDS011;16713;52.916;12.834;2022-10-16T06:40:30;3.65;;;3.10;;
29824;SDS011;16713;52.916;12.834;2022-10-16T06:42:57;4.28;;;2.72;;
29824;SDS011;16713;52.916;12.834;2022-10-16T06:45:23;3.72;;;3.05;;
29824;SDS011;16713;52.916;12.834;2022-10-16T06:47:50;4.07;;;3.08;;
29824;SDS011;16713;52.916;12.834;2022-10-16T06:50:16;4.55;;;3.63;;
29824;SDS011;16713;52.916;12.834;2022-10-16T06:52:42;3.67;;;3.38;;
29824;SDS011;16713;52.916;12.834;2022-10-16T06:55:08;3.50;;;3.20;;
29824;SDS011;16713;52.916;12.834;2022-10-16T06:57:35;3.90;;;3.20;;
29824;SDS011;16713;52.916;12.834;2022-10-16T07:00:02;5.85;;;3.03;;
29824;SDS011;16713;52.916;12.834;2022-10-16T07:02:29;4.93;;;3.30;;
29824;SDS011;16713;52.916;12.834;2022-10-16T07:04:55;3.70;;;3.10;;
29824;SDS011;16713;52.916;12.834;2022-10-16T07:07:22;3.65;;;3.10;;
29824;SDS011;16713;52.916;12.834;2022-10-16T07:09:50;3.33;;;2.97;;
29824;SDS011;16713;52.916;12.834;2022-10-16T07:12:17;4.55;;;2.90;;
29824;SDS011;16713;52.916;12.834;2022-10-16T07:14:43;3.55;;;2.67;;
29824;SDS011;16713;52.916;12.834;2022-10-16T07:17:10;4.80;;;3.25;;
29824;SDS011;16713;52.916;12.834;2022-10-16T07:19:36;4.93;;;3.03;;
29824;SDS011;16713;52.916;12.834;2022-10-16T07:22:03;5.13;;;3.13;;
29824;SDS011;16713;52.916;12.834;2022-10-16T07:24:29;5.68;;;3.08;;
29824;SDS011;16713;52.916;12.834;2022-10-16T07:26:55;4.25;;;3.28;;
29824;SDS011;16713;52.916;12.834;2022-10-16T07:29:22;5.50;;;2.70;;
29824;SDS011;16713;52.916;12.834;2022-10-16T07:31:48;5.43;;;3.25;;
29824;SDS011;16713;52.916;12.834;2022-10-16T07:34:16;4.70;;;3.25;;
29824;SDS011;16713;52.916;12.834;2022-10-16T07:36:44;5.70;;;2.83;;
29824;SDS011;16713;52.916;12.834;2022-10-16T07:39:10;4.45;;;2.92;;
29824;SDS011;16713;52.916;12.834;2022-10-16T07:41:36;5.13;;;3.30;;
29824;SDS011;16713;52.916;12.834;2022-10-16T07:44:03;3.08;;;2.15;;
29824;SDS011;16713;52.916;12.834;2022-10-16T07:46:30;3.85;;;2.58;;
29824;SDS011;16713;52.916;12.834;2022-10-16T07:48:57;3.15;;;2.78;;
29824;SDS011;16713;52.916;12.834;2022-10-16T07:51:24;5.10;;;3.47;;
29824;SDS011;16713;52.916;12.834;2022-10-16T07:53:52;4.13;;;2.97;;
29824;SDS011;16713;52.916;12.834;2022-10-16T07:56:19;4.47;;;3.47;;
29824;SDS011;16713;52.916;12.834;2022-10-16T07:58:46;7.82;;;3.00;;
29824;SDS011;16713;52.916;12.834;2022-10-16T08:01:15;4.18;;;3.28;;
29824;SDS011;16713;52.916;12.834;2022-10-16T08:03:44;3.70;;;3.10;;
29824;SDS011;16713;52.916;12.834;2022-10-16T08:06:11;5.75;;;3.55;;
29824;SDS011;16713;52.916;12.834;2022-10-16T08:08:37;4.22;;;3.50;;
29824;SDS011;16713;52.916;12.834;2022-10-16T08:11:04;3.72;;;3.15;;
29824;SDS011;16713;52.916;12.834;2022-10-16T08:13:31;5.10;;;3.28;;
29824;SDS011;16713;52.916;12.834;2022-10-16T08:15:57;3.67;;;3.38;;
29824;SDS011;16713;52.916;12.834;2022-10-16T08:18:24;8.35;;;3.83;;
29824;SDS011;16713;52.916;12.834;2022-10-16T08:20:59;5.00;;;3.60;;
29824;SDS011;16713;52.916;12.834;2022-10-16T08:23:26;6.72;;;3.80;;
29824;SDS011;16713;52.916;12.834;2022-10-16T08:25:54;4.70;;;3.65;;
29824;SDS011;16713;52.916;12.834;2022-10-16T08:28:22;5.50;;;3.58;;
29824;SDS011;16713;52.916;12.834;2022-10-16T08:30:49;3.95;;;3.35;;
29824;SDS011;16713;52.916;12.834;2022-10-16T08:33:15;5.50;;;3.90;;
29824;SDS011;16713;52.916;12.834;2022-10-16T08:35:42;4.65;;;3.25;;
29824;SDS011;16713;52.916;12.834;2022-10-16T08:38:08;3.40;;;3.08;;
29824;SDS011;16713;52.916;12.834;2022-10-16T08:40:36;4.68;;;2.95;;
29824;SDS011;16713;52.916;12.834;2022-10-16T08:43:10;4.03;;;3.10;;
29824;SDS011;16713;52.916;12.834;2022-10-16T08:48:17;6.82;;;3.70;;
29824;SDS011;16713;52.916;12.834;2022-10-16T08:50:53;4.78;;;3.78;;
29824;SDS011;16713;52.916;12.834;2022-10-16T08:53:28;3.95;;;3.30;;
29824;SDS011;16713;52.916;12.834;2022-10-16T08:56:01;4.45;;;3.97;;
29824;SDS011;16713;52.916;12.834;2022-10-16T08:58:29;4.18;;;3.72;;
29824;SDS011;16713;52.916;12.834;2022-10-16T09:00:57;4.40;;;3.75;;
29824;SDS011;16713;52.916;12.834;2022-10-16T09:03:35;6.20;;;4.18;;
29824;SDS011;16713;52.916;12.834;2022-10-16T09:06:25;6.55;;;4.05;;
29824;SDS011;16713;52.916;12.834;2022-10-16T09:14:33;5.32;;;3.10;;
29824;SDS011;16713;52.916;12.834;2022-10-16T09:17:19;4.40;;;3.08;;
29824;SDS011;16713;52.916;12.834;2022-10-16T09:20:03;12.10;;;3.28;;
29824;SDS011;16713;52.916;12.834;2022-10-16T09:25:30;4.65;;;2.80;;
29824;SDS011;16713;52.916;12.834;2022-10-16T09:27:58;2.42;;;1.80;;
29824;SDS011;16713;52.916;12.834;2022-10-16T09:30:26;4.97;;;1.50;;
29824;SDS011;16713;52.916;12.834;2022-10-16T09:32:55;3.53;;;2.10;;
29824;SDS011;16713;52.916;12.834;2022-10-16T09:35:31;4.03;;;1.70;;
29824;SDS011;16713;52.916;12.834;2022-10-16T09:38:01;1.95;;;1.73;;
29824;SDS011;16713;52.916;12.834;2022-10-16T09:40:31;2.15;;;1.50;;
29824;SDS011;16713;52.916;12.834;2022-10-16T09:43:12;3.90;;;1.52;;
29824;SDS011;16713;52.916;12.834;2022-10-16T09:45:54;2.50;;;1.33;;
29824;SDS011;16713;52.916;12.834;2022-10-16T09:48:27;3.45;;;1.48;;
29824;SDS011;16713;52.916;12.834;2022-10-16T09:50:58;4.97;;;1.58;;
29824;SDS011;16713;52.916;12.834;2022-10-16T09:56:27;4.28;;;2.35;;
29824;SDS011;16713;52.916;12.834;2022-10-16T09:58:56;2.58;;;2.00;;
29824;SDS011;16713;52.916;12.834;2022-10-16T10:01:31;4.10;;;2.40;;
29824;SDS011;16713;52.916;12.834;2022-10-16T10:04:04;3.22;;;1.80;;
29824;SDS011;16713;52.916;12.834;2022-10-16T10:06:33;4.22;;;1.60;;
29824;SDS011;16713;52.916;12.834;2022-10-16T10:09:05;3.33;;;1.55;;
29824;SDS011;16713;52.916;12.834;2022-10-16T10:14:24;2.83;;;1.95;;
29824;SDS011;16713;52.916;12.834;2022-10-16T10:17:01;2.95;;;1.75;;
29824;SDS011;16713;52.916;12.834;2022-10-16T10:19:37;3.35;;;1.42;;
29824;SDS011;16713;52.916;12.834;2022-10-16T10:30:15;3.17;;;1.42;;
29824;SDS011;16713;52.916;12.834;2022-10-16T10:32:52;5.40;;;3.90;;
29824;SDS011;16713;52.916;12.834;2022-10-16T10:35:31;4.10;;;2.20;;
29824;SDS011;16713;52.916;12.834;2022-10-16T10:44:07;1.30;;;1.20;;
29824;SDS011;16713;52.916;12.834;2022-10-16T10:46:51;3.78;;;1.70;;
29824;SDS011;16713;52.916;12.834;2022-10-16T10:57:29;4.90;;;1.63;;
29824;SDS011;16713;52.916;12.834;2022-10-16T11:02:48;3.70;;;1.20;;
29824;SDS011;16713;52.916;12.834;2022-10-16T11:05:45;1.35;;;1.17;;
29824;SDS011;16713;52.916;12.834;2022-10-16T11:08:22;1.42;;;1.10;;
29824;SDS011;16713;52.916;12.834;2022-10-16T11:10:58;3.03;;;1.42;;
29824;SDS011;16713;52.916;12.834;2022-10-16T11:13:30;2.95;;;1.23;;
29824;SDS011;16713;52.916;12.834;2022-10-16T11:16:03;2.75;;;1.73;;
29824;SDS011;16713;52.916;12.834;2022-10-16T11:19:28;8.13;;;4.10;;
29824;SDS011;16713;52.916;12.834;2022-10-16T11:21:56;2.33;;;1.88;;
29824;SDS011;16713;52.916;12.834;2022-10-16T11:27:39;3.08;;;1.30;;
29824;SDS011;16713;52.916;12.834;2022-10-16T11:30:16;3.53;;;1.20;;
29824;SDS011;16713;52.916;12.834;2022-10-16T11:38:11;2.42;;;1.23;;
29824;SDS011;16713;52.916;12.834;2022-10-16T11:40:42;7.95;;;1.52;;
29824;SDS011;16713;52.916;12.834;2022-10-16T11:43:15;1.40;;;1.10;;
29824;SDS011;16713;52.916;12.834;2022-10-16T11:45:57;1.00;;;0.90;;
29824;SDS011;16713;52.916;12.834;2022-10-16T11:48:48;1.23;;;0.80;;
29824;SDS011;16713;52.916;12.834;2022-10-16T11:51:27;6.55;;;1.20;;
29824;SDS011;16713;52.916;12.834;2022-10-16T11:56:56;1.20;;;0.80;;
29824;SDS011;16713;52.916;12.834;2022-10-16T11:59:31;0.85;;;0.70;;
29824;SDS011;16713;52.916;12.834;2022-10-16T12:02:26;6.32;;;3.78;;
29824;SDS011;16713;52.916;12.834;2022-10-16T12:05:20;2.58;;;0.80;;
29824;SDS011;16713;52.916;12.834;2022-10-16T12:10:27;0.70;;;0.70;;
29824;SDS011;16713;52.916;12.834;2022-10-16T12:12:57;2.47;;;0.95;;
29824;SDS011;16713;52.916;12.834;2022-10-16T12:15:25;2.75;;;0.95;;
29824;SDS011;16713;52.916;12.834;2022-10-16T12:18:23;3.38;;;0.82;;
29824;SDS011;16713;52.916;12.834;2022-10-16T12:20:54;0.70;;;0.70;;
29824;SDS011;16713;52.916;12.834;2022-10-16T12:23:32;1.13;;;0.70;;
29824;SDS011;16713;52.916;12.834;2022-10-16T12:26:02;3.35;;;0.80;;
29824;SDS011;16713;52.916;12.834;2022-10-16T12:28:30;1.67;;;0.82;;
29824;SDS011;16713;52.916;12.834;2022-10-16T12:31:00;6.22;;;1.10;;
29824;SDS011;16713;52.916;12.834;2022-10-16T12:34:17;1.13;;;0.73;;
29824;SDS011;16713;52.916;12.834;2022-10-16T12:36:30;2.58;;;0.93;;
29824;SDS011;16713;52.916;12.834;2022-10-16T12:39:00;1.67;;;0.80;;
29824;SDS011;16713;52.916;12.834;2022-10-16T12:41:28;0.70;;;0.70;;
29824;SDS011;16713;52.916;12.834;2022-10-16T12:44:04;0.93;;;0.52;;
29824;SDS011;16713;52.916;12.834;2022-10-16T12:51:38;2.70;;;0.50;;
29824;SDS011;16713;52.916;12.834;2022-10-16T12:54:16;1.15;;;0.60;;
29824;SDS011;16713;52.916;12.834;2022-10-16T12:59:52;1.80;;;0.80;;
29824;SDS011;16713;52.916;12.834;2022-10-16T13:02:39;0.60;;;0.50;;
29824;SDS011;16713;52.916;12.834;2022-10-16T13:18:52;0.88;;;0.50;;
29824;SDS011;16713;52.916;12.834;2022-10-16T13:21:28;0.70;;;0.70;;
29824;SDS011;16713;52.916;12.834;2022-10-16T13:30:16;2.20;;;0.80;;
29824;SDS011;16713;52.916;12.834;2022-10-16T13:32:49;0.60;;;0.47;;
29824;SDS011;16713;52.916;12.834;2022-10-16T13:35:19;0.57;;;0.55;;
29824;SDS011;16713;52.916;12.834;2022-10-16T13:37:48;2.35;;;0.47;;
29824;SDS011;16713;52.916;12.834;2022-10-16T13:40:19;1.83;;;0.47;;
29824;SDS011;16713;52.916;12.834;2022-10-16T13:42:50;0.65;;;0.60;;
29824;SDS011;16713;52.916;12.834;2022-10-16T13:45:25;0.93;;;0.70;;
29824;SDS011;16713;52.916;12.834;2022-10-16T13:48:01;0.75;;;0.60;;
29824;SDS011;16713;52.916;12.834;2022-10-16T13:50:28;1.98;;;0.68;;
29824;SDS011;16713;52.916;12.834;2022-10-16T13:53:05;0.60;;;0.60;;
29824;SDS011;16713;52.916;12.834;2022-10-16T13:55:32;1.95;;;0.40;;
29824;SDS011;16713;52.916;12.834;2022-10-16T13:58:10;0.73;;;0.60;;
29824;SDS011;16713;52.916;12.834;2022-10-16T14:00:39;1.48;;;0.45;;
29824;SDS011;16713;52.916;12.834;2022-10-16T14:03:13;3.10;;;0.95;;
29824;SDS011;16713;52.916;12.834;2022-10-16T14:05:48;2.08;;;1.17;;
29824;SDS011;16713;52.916;12.834;2022-10-16T14:08:16;1.98;;;0.70;;
29824;SDS011;16713;52.916;12.834;2022-10-16T14:10:43;4.40;;;0.80;;
29824;SDS011;16713;52.916;12.834;2022-10-16T14:15:45;2.17;;;0.73;;
29824;SDS011;16713;52.916;12.834;2022-10-16T14:18:16;0.82;;;0.60;;
29824;SDS011;16713;52.916;12.834;2022-10-16T14:20:46;1.83;;;1.05;;
29824;SDS011;16713;52.916;12.834;2022-10-16T14:25:46;1.00;;;0.60;;
29824;SDS011;16713;52.916;12.834;2022-10-16T14:30:48;3.08;;;2.55;;
29824;SDS011;16713;52.916;12.834;2022-10-16T14:33:30;3.67;;;2.20;;
29824;SDS011;16713;52.916;12.834;2022-10-16T14:38:34;3.17;;;1.77;;
29824;SDS011;16713;52.916;12.834;2022-10-16T14:41:02;3.80;;;2.40;;
29824;SDS011;16713;52.916;12.834;2022-10-16T14:43:40;3.03;;;2.22;;
29824;SDS011;16713;52.916;12.834;2022-10-16T14:46:15;1.42;;;1.17;;
29824;SDS011;16713;52.916;12.834;2022-10-16T14:48:45;3.10;;;1.90;;
29824;SDS011;16713;52.916;12.834;2022-10-16T14:51:18;2.72;;;1.55;;
29824;SDS011;16713;52.916;12.834;2022-10-16T14:53:45;2.42;;;1.20;;
29824;SDS011;16713;52.916;12.834;2022-10-16T14:56:15;2.38;;;0.90;;
29824;SDS011;16713;52.916;12.834;2022-10-16T14:58:45;3.15;;;1.20;;
29824;SDS011;16713;52.916;12.834;2022-10-16T15:01:12;1.50;;;1.27;;
29824;SDS011;16713;52.916;12.834;2022-10-16T15:03:39;2.35;;;1.75;;
29824;SDS011;16713;52.916;12.834;2022-10-16T15:06:11;4.85;;;3.22;;
29824;SDS011;16713;52.916;12.834;2022-10-16T15:08:38;3.28;;;2.65;;
29824;SDS011;16713;52.916;12.834;2022-10-16T15:11:08;6.00;;;2.60;;
29824;SDS011;16713;52.916;12.834;2022-10-16T15:13:38;6.40;;;2.67;;
29824;SDS011;16713;52.916;12.834;2022-10-16T15:16:04;5.28;;;2.50;;
29824;SDS011;16713;52.916;12.834;2022-10-16T15:18:33;5.90;;;2.05;;
29824;SDS011;16713;52.916;12.834;2022-10-16T15:20:59;4.18;;;2.40;;
29824;SDS011;16713;52.916;12.834;2022-10-16T15:23:26;7.97;;;2.53;;
29824;SDS011;16713;52.916;12.834;2022-10-16T15:25:53;4.00;;;2.10;;
29824;SDS011;16713;52.916;12.834;2022-10-16T15:28:21;3.70;;;1.90;;
29824;SDS011;16713;52.916;12.834;2022-10-16T15:30:49;4.80;;;1.63;;
29824;SDS011;16713;52.916;12.834;2022-10-16T15:33:18;2.05;;;1.55;;
29824;SDS011;16713;52.916;12.834;2022-10-16T15:35:46;4.65;;;2.53;;
29824;SDS011;16713;52.916;12.834;2022-10-16T15:38:14;2.08;;;1.25;;
29824;SDS011;16713;52.916;12.834;2022-10-16T15:40:41;4.47;;;1.27;;
29824;SDS011;16713;52.916;12.834;2022-10-16T15:43:07;3.53;;;0.98;;
29824;SDS011;16713;52.916;12.834;2022-10-16T15:45:34;1.15;;;0.77;;
29824;SDS011;16713;52.916;12.834;2022-10-16T15:48:01;2.55;;;1.58;;
29824;SDS011;16713;52.916;12.834;2022-10-16T15:50:27;1.92;;;1.60;;
29824;SDS011;16713;52.916;12.834;2022-10-16T15:52:54;1.88;;;1.13;;
29824;SDS011;16713;52.916;12.834;2022-10-16T15:55:20;1.40;;;0.90;;
29824;SDS011;16713;52.916;12.834;2022-10-16T15:57:46;1.65;;;1.00;;
29824;SDS011;16713;52.916;12.834;2022-10-16T16:00:17;1.20;;;0.70;;
29824;SDS011;16713;52.916;12.834;2022-10-16T16:02:54;3.45;;;1.40;;
29824;SDS011;16713;52.916;12.834;2022-10-16T16:05:20;1.23;;;1.10;;
29824;SDS011;16713;52.916;12.834;2022-10-16T16:07:48;2.80;;;1.08;;
29824;SDS011;16713;52.916;12.834;2022-10-16T16:10:15;1.60;;;0.80;;
29824;SDS011;16713;52.916;12.834;2022-10-16T16:12:42;2.30;;;1.13;;
29824;SDS011;16713;52.916;12.834;2022-10-16T16:15:08;3.92;;;1.38;;
29824;SDS011;16713;52.916;12.834;2022-10-16T16:17:36;3.63;;;1.30;;
29824;SDS011;16713;52.916;12.834;2022-10-16T16:20:03;3.22;;;1.40;;
29824;SDS011;16713;52.916;12.834;2022-10-16T16:22:30;2.58;;;1.27;;
29824;SDS011;16713;52.916;12.834;2022-10-16T16:24:57;4.13;;;1.38;;
29824;SDS011;16713;52.916;12.834;2022-10-16T16:27:23;2.42;;;1.25;;
29824;SDS011;16713;52.916;12.834;2022-10-16T16:29:51;3.75;;;1.38;;
29824;SDS011;16713;52.916;12.834;2022-10-16T16:32:19;3.90;;;1.05;;
29824;SDS011;16713;52.916;12.834;2022-10-16T16:34:45;5.13;;;1.20;;
29824;SDS011;16713;52.916;12.834;2022-10-16T16:37:12;2.53;;;0.90;;
29824;SDS011;16713;52.916;12.834;2022-10-16T16:39:38;1.63;;;1.02;;